Time;durP1;ratioP1;P1;durP2;ratioP2;P2;SDS_P1;SDS_P2;PMS_P1;PMS_P2;Temp;Humidity;BMP_temperature;BMP_pressure;BME280_temperature;BME280_humidity;BME280_pressure;Samples;Min_cycle;Max_cycle;Signal;HPM_P1;HPM_P2
2021/12/25 00:01:09;;;;;;;4.47;1.20;;;-0.70;99.90;;;;;;4752388;30;20411;-88
2021/12/25 00:03:44;;;;;;;5.00;1.00;;;-0.70;99.90;;;;;;4757582;29;20043;-86
2021/12/25 00:06:10;;;;;;;5.47;1.55;;;-0.70;99.90;;;;;;4750804;29;20051;-87
2021/12/25 00:08:36;;;;;;;6.43;1.67;;;-0.80;99.90;;;;;;4764943;30;20043;-88
2021/12/25 00:11:08;;;;;;;5.85;1.55;;;-0.80;99.90;;;;;;4749741;30;20047;-88
2021/12/25 00:13:43;;;;;;;12.85;1.92;;;-0.80;99.90;;;;;;4768587;29;20043;-87
2021/12/25 00:16:09;;;;;;;5.63;0.93;;;-0.80;99.90;;;;;;4762359;29;20079;-89
2021/12/25 00:18:38;;;;;;;7.00;1.40;;;-0.90;99.90;;;;;;4781364;29;20054;-90
2021/12/25 00:21:05;;;;;;;5.97;1.27;;;-0.90;99.90;;;;;;4749216;29;20039;-87
2021/12/25 00:23:31;;;;;;;2.85;1.17;;;-1.00;99.90;;;;;;4766322;30;20058;-88
2021/12/25 00:26:36;;;;;;;8.05;1.38;;;-1.00;99.90;;;;;;4768779;30;20059;-89
2021/12/25 00:29:00;;;;;;;5.68;1.33;;;-1.10;99.90;;;;;;4768603;29;20500;-87
2021/12/25 00:31:42;;;;;;;3.92;1.25;;;-1.00;99.90;;;;;;4759378;29;20488;-86
2021/12/25 00:34:10;;;;;;;6.70;1.13;;;-1.00;99.90;;;;;;4758978;29;20496;-88
2021/12/25 00:36:35;;;;;;;4.85;1.20;;;-1.10;99.90;;;;;;4750587;30;20050;-87
2021/12/25 00:39:02;;;;;;;6.13;1.20;;;-1.20;99.90;;;;;;4767588;29;20055;-88
2021/12/25 00:41:28;;;;;;;4.13;1.30;;;-1.00;99.90;;;;;;4751743;29;20055;-89
2021/12/25 00:43:54;;;;;;;8.80;0.90;;;-1.20;99.90;;;;;;4753265;30;20047;-86
2021/12/25 00:46:20;;;;;;;5.30;1.27;;;-1.20;99.90;;;;;;4752637;29;20043;-87
2021/12/25 00:48:46;;;;;;;5.40;1.10;;;-1.20;99.90;;;;;;4779507;29;21454;-88
2021/12/25 00:51:12;;;;;;;4.95;0.90;;;-1.30;99.90;;;;;;4753184;29;20047;-88
2021/12/25 00:53:41;;;;;;;9.45;1.50;;;-1.30;99.90;;;;;;4784236;29;20074;-89
2021/12/25 00:56:10;;;;;;;3.90;0.75;;;-1.50;99.90;;;;;;4763366;29;20039;-89
2021/12/25 00:58:36;;;;;;;4.07;1.10;;;-1.40;99.90;;;;;;4780411;29;20050;-87
2021/12/25 01:01:03;;;;;;;8.45;1.10;;;-1.40;99.90;;;;;;4773922;29;20047;-87
2021/12/25 01:03:29;;;;;;;12.25;0.98;;;-1.40;99.90;;;;;;4767498;29;20944;-89
2021/12/25 01:05:55;;;;;;;4.88;0.85;;;-1.40;99.90;;;;;;4768401;30;20039;-88
2021/12/25 01:08:21;;;;;;;2.28;0.82;;;-1.50;99.90;;;;;;4765211;29;20039;-88
2021/12/25 01:10:49;;;;;;;3.08;0.80;;;-1.50;99.90;;;;;;4755133;30;20062;-87
2021/12/25 01:13:29;;;;;;;5.35;0.98;;;-1.40;99.90;;;;;;4764514;29;20081;-87
2021/12/25 01:29:12;;;;;;;3.03;0.90;;;-1.70;99.90;;;;;;4754665;30;20051;-90
2021/12/25 01:42:18;;;;;;;3.92;0.90;;;-1.80;99.90;;;;;;4752617;30;20047;-88
2021/12/25 01:47:47;;;;;;;10.25;0.85;;;-1.80;99.90;;;;;;4766329;30;20239;-86
2021/12/25 01:50:16;;;;;;;5.57;0.80;;;-1.80;99.90;;;;;;4740888;30;20043;-89
2021/12/25 01:52:42;;;;;;;1.85;0.60;;;-1.90;99.90;;;;;;4766218;30;20148;-89
2021/12/25 01:55:18;;;;;;;4.68;1.17;;;-1.90;99.90;;;;;;4734535;30;20051;-89
2021/12/25 01:57:44;;;;;;;4.75;1.00;;;-1.90;99.90;;;;;;4775948;29;20047;-89
2021/12/25 02:00:22;;;;;;;7.35;1.10;;;-1.90;99.90;;;;;;4748746;30;20134;-89
2021/12/25 02:02:49;;;;;;;2.97;0.80;;;-2.00;99.90;;;;;;4767986;30;20035;-91
2021/12/25 02:05:16;;;;;;;10.73;1.13;;;-2.00;99.90;;;;;;4768603;30;20040;-88
2021/12/25 02:07:43;;;;;;;5.22;1.35;;;-2.00;99.90;;;;;;4748596;30;20043;-88
2021/12/25 02:10:10;;;;;;;4.03;1.00;;;-2.10;99.90;;;;;;4764775;30;20051;-88
2021/12/25 02:12:36;;;;;;;3.40;0.98;;;-2.10;99.90;;;;;;4764178;30;20039;-88
2021/12/25 02:15:10;;;;;;;3.42;0.80;;;-2.10;99.90;;;;;;4763904;30;20055;-88
2021/12/25 02:17:58;;;;;;;3.15;0.98;;;-2.10;99.90;;;;;;4764348;30;20392;-88
2021/12/25 02:20:30;;;;;;;5.07;0.90;;;-2.20;99.90;;;;;;4764917;30;20047;-87
2021/12/25 02:23:02;;;;;;;5.07;1.00;;;-2.10;99.90;;;;;;4763620;30;20043;-87
2021/12/25 02:25:37;;;;;;;2.58;0.70;;;-2.20;99.90;;;;;;4762012;29;20043;-90
2021/12/25 02:28:07;;;;;;;5.72;1.02;;;-2.20;99.90;;;;;;4763062;30;20454;-86
2021/12/25 02:30:33;;;;;;;6.07;1.52;;;-2.20;99.90;;;;;;4762453;30;20051;-88
2021/12/25 02:32:59;;;;;;;7.45;0.85;;;-2.30;99.90;;;;;;4749539;30;20061;-86
2021/12/25 02:35:29;;;;;;;7.57;1.50;;;-2.20;99.90;;;;;;4764038;29;20059;-89
2021/12/25 02:37:55;;;;;;;9.63;3.33;;;-2.30;99.90;;;;;;4750640;30;20094;-88
2021/12/25 02:40:21;;;;;;;1.85;1.00;;;-2.30;99.90;;;;;;4763011;30;20047;-88
2021/12/25 02:42:47;;;;;;;6.63;1.10;;;-2.30;99.90;;;;;;4750306;30;20045;-88
2021/12/25 02:45:18;;;;;;;3.88;1.00;;;-2.40;99.90;;;;;;4748595;29;20387;-88
2021/12/25 02:47:50;;;;;;;6.10;1.23;;;-2.40;99.90;;;;;;4770560;30;20182;-87
2021/12/25 02:50:29;;;;;;;4.85;1.20;;;-2.40;99.90;;;;;;4768581;29;20054;-87
2021/12/25 02:52:57;;;;;;;7.85;1.05;;;-2.40;99.90;;;;;;4770950;30;20054;-87
2021/12/25 02:55:24;;;;;;;5.40;0.93;;;-2.50;99.90;;;;;;4764721;30;20350;-87
2021/12/25 02:57:52;;;;;;;6.07;1.00;;;-2.50;99.90;;;;;;4794944;29;20513;-87
2021/12/25 03:00:23;;;;;;;4.68;0.85;;;-2.50;99.90;;;;;;4760795;30;20119;-89
2021/12/25 03:02:48;;;;;;;7.53;0.85;;;-2.50;99.90;;;;;;4778972;29;20092;-87
2021/12/25 03:05:15;;;;;;;5.30;0.93;;;-2.50;99.90;;;;;;4778739;29;20047;-87
2021/12/25 03:07:41;;;;;;;4.82;1.00;;;-2.50;99.90;;;;;;4746986;30;20568;-88
2021/12/25 03:10:09;;;;;;;5.00;1.00;;;-2.50;99.90;;;;;;4764958;30;20423;-87
2021/12/25 03:12:49;;;;;;;2.88;0.73;;;-2.60;99.90;;;;;;4752672;30;20444;-88
2021/12/25 03:15:27;;;;;;;3.05;0.90;;;-2.70;99.90;;;;;;4764524;29;20035;-90
2021/12/25 03:17:57;;;;;;;2.13;0.60;;;-2.60;99.90;;;;;;4782080;29;20112;-86
2021/12/25 03:20:26;;;;;;;3.10;0.82;;;-2.70;99.90;;;;;;4767436;29;20043;-86
2021/12/25 03:22:52;;;;;;;2.65;0.80;;;-2.70;99.90;;;;;;4763393;30;20046;-87
2021/12/25 03:25:18;;;;;;;2.08;0.60;;;-2.80;99.90;;;;;;4749484;30;20043;-86
2021/12/25 03:27:48;;;;;;;6.93;1.00;;;-2.80;99.90;;;;;;4745080;29;20057;-87
2021/12/25 03:30:22;;;;;;;3.00;0.60;;;-2.80;99.90;;;;;;4766346;29;20051;-87
2021/12/25 03:32:48;;;;;;;6.75;0.90;;;-2.80;99.90;;;;;;4768847;30;20039;-90
2021/12/25 03:35:14;;;;;;;1.77;0.60;;;-2.80;99.90;;;;;;4749755;29;20212;-87
2021/12/25 03:37:40;;;;;;;5.15;0.60;;;-2.90;99.90;;;;;;4766229;30;20057;-87
2021/12/25 03:40:07;;;;;;;7.47;0.90;;;-2.90;99.90;;;;;;4765001;29;20478;-87
2021/12/25 03:42:33;;;;;;;3.42;1.10;;;-3.00;99.90;;;;;;4768239;29;20596;-87
2021/12/25 03:44:59;;;;;;;2.38;0.95;;;-3.00;99.90;;;;;;4766939;30;20437;-86
2021/12/25 03:47:31;;;;;;;3.67;0.70;;;-3.00;99.90;;;;;;4770496;29;20059;-87
2021/12/25 03:58:18;;;;;;;1.92;0.80;;;-3.10;99.90;;;;;;4766922;29;20058;-88
2021/12/25 04:00:47;;;;;;;2.17;0.73;;;-3.10;99.90;;;;;;4750278;30;20070;-86
2021/12/25 04:03:22;;;;;;;3.50;0.80;;;-3.10;99.90;;;;;;4769517;29;20133;-88
2021/12/25 04:05:49;;;;;;;3.35;0.75;;;-3.20;99.90;;;;;;4761752;29;20054;-88
2021/12/25 04:08:18;;;;;;;3.72;0.60;;;-3.20;99.90;;;;;;4752431;29;20078;-87
2021/12/25 04:10:49;;;;;;;2.72;0.63;;;-3.20;99.90;;;;;;4752568;30;20043;-87
2021/12/25 04:13:23;;;;;;;2.72;0.80;;;-3.20;99.90;;;;;;4753649;29;20103;-86
2021/12/25 04:15:49;;;;;;;2.15;0.63;;;-3.30;99.90;;;;;;4737931;29;20047;-87
2021/12/25 04:18:15;;;;;;;7.47;0.90;;;-3.30;99.90;;;;;;4751181;29;20727;-88
2021/12/25 04:20:42;;;;;;;2.17;0.70;;;-3.30;99.90;;;;;;4779383;29;20047;-88
2021/12/25 04:23:15;;;;;;;2.08;0.70;;;-3.30;99.90;;;;;;4769680;29;20039;-87
2021/12/25 04:25:41;;;;;;;;;;;-3.40;99.90;;;;;;4777950;29;20172;-88
2021/12/25 04:28:18;;;;;;;4.20;0.93;;;-3.40;99.90;;;;;;4751285;29;19974;-88
2021/12/25 05:03:40;;;;;;;3.78;0.88;;;-3.70;99.90;;;;;;4754731;29;20157;-86
2021/12/25 05:06:06;;;;;;;2.30;0.80;;;-3.60;99.90;;;;;;4754548;29;21068;-88
2021/12/25 05:08:32;;;;;;;3.92;1.00;;;-3.60;99.90;;;;;;4749298;29;20125;-86
2021/12/25 05:10:58;;;;;;;3.67;0.95;;;-3.60;99.90;;;;;;4766557;30;20047;-86
2021/12/25 05:13:24;;;;;;;3.22;0.85;;;-3.70;99.90;;;;;;4749514;29;20229;-87
2021/12/25 05:15:50;;;;;;;1.83;0.88;;;-3.60;99.90;;;;;;4751444;30;20427;-87
2021/12/25 05:18:16;;;;;;;1.52;0.75;;;-3.60;99.90;;;;;;4751724;29;20043;-86
2021/12/25 05:20:42;;;;;;;3.40;1.63;;;-3.60;99.90;;;;;;4764510;30;20138;-88
2021/12/25 05:23:09;;;;;;;2.55;0.70;;;-3.60;99.90;;;;;;4750310;29;20130;-87
2021/12/25 05:25:35;;;;;;;1.75;0.80;;;-3.60;99.90;;;;;;4777663;29;20043;-87
2021/12/25 05:28:02;;;;;;;2.63;0.98;;;-3.60;99.90;;;;;;4764389;30;20043;-86
2021/12/25 05:30:30;;;;;;;2.88;0.90;;;-3.70;99.90;;;;;;4758774;29;20047;-87
2021/12/25 05:32:56;;;;;;;2.80;0.70;;;-3.60;99.90;;;;;;4752857;30;20454;-86
2021/12/25 05:35:22;;;;;;;6.13;1.00;;;-3.70;99.90;;;;;;4762153;29;20104;-87
2021/12/25 05:37:48;;;;;;;1.02;0.65;;;-3.80;99.90;;;;;;4764492;30;20043;-87
2021/12/25 05:40:14;;;;;;;1.70;0.73;;;-3.80;99.90;;;;;;4751276;29;20055;-87
2021/12/25 05:42:40;;;;;;;4.18;0.70;;;-3.80;99.90;;;;;;4766476;29;20084;-87
2021/12/25 05:45:07;;;;;;;1.27;0.60;;;-3.80;99.90;;;;;;4751161;29;20039;-88
2021/12/25 05:47:33;;;;;;;3.42;0.70;;;-3.80;99.90;;;;;;4754813;29;20051;-87
2021/12/25 05:49:59;;;;;;;1.45;0.85;;;-3.90;99.90;;;;;;4767728;29;20098;-86
2021/12/25 05:52:25;;;;;;;3.70;1.58;;;-3.90;99.90;;;;;;4763395;29;20048;-87
2021/12/25 05:54:51;;;;;;;3.35;0.63;;;-3.90;99.90;;;;;;4750344;30;20430;-86
2021/12/25 05:57:17;;;;;;;3.97;0.85;;;-3.90;99.90;;;;;;4761783;29;20043;-86
2021/12/25 05:59:43;;;;;;;3.35;0.88;;;-3.90;99.90;;;;;;4747089;30;20109;-86
2021/12/25 06:02:09;;;;;;;1.92;0.60;;;-3.90;99.90;;;;;;4746272;29;20048;-87
2021/12/25 06:04:35;;;;;;;1.85;0.50;;;-4.00;99.90;;;;;;4750613;29;20427;-86
2021/12/25 06:07:02;;;;;;;2.92;0.80;;;-4.00;99.90;;;;;;4768090;30;20043;-86
2021/12/25 06:09:28;;;;;;;2.33;0.60;;;-4.00;99.90;;;;;;4749881;29;20047;-88
2021/12/25 06:11:53;;;;;;;0.90;0.52;;;-4.00;99.90;;;;;;4765495;30;20530;-86
2021/12/25 06:14:21;;;;;;;2.72;0.60;;;-4.00;99.90;;;;;;4750823;29;20255;-86
2021/12/25 06:16:48;;;;;;;3.83;0.88;;;-4.00;99.90;;;;;;4735441;30;20057;-86
2021/12/25 06:19:15;;;;;;;1.58;0.57;;;-4.00;99.90;;;;;;4766043;29;20054;-87
2021/12/25 06:21:42;;;;;;;0.85;0.32;;;-4.10;99.90;;;;;;4750246;30;20080;-87
2021/12/25 06:24:08;;;;;;;1.13;0.50;;;-4.00;99.90;;;;;;4767826;29;20123;-85
2021/12/25 06:26:36;;;;;;;2.00;0.60;;;-3.90;99.90;;;;;;4779984;29;20043;-86
2021/12/25 06:29:03;;;;;;;5.80;0.73;;;-4.00;99.90;;;;;;4763148;29;20449;-87
2021/12/25 06:31:29;;;;;;;2.95;0.88;;;-4.10;99.90;;;;;;4762816;30;20523;-86
2021/12/25 06:33:57;;;;;;;1.60;0.50;;;-4.10;99.90;;;;;;4766431;30;20035;-86
2021/12/25 06:36:23;;;;;;;3.83;0.80;;;-4.10;99.90;;;;;;4749491;29;20580;-86
2021/12/25 06:38:48;;;;;;;0.38;0.30;;;-4.10;99.90;;;;;;4766841;30;20047;-86
2021/12/25 06:41:14;;;;;;;3.15;0.70;;;-4.10;99.90;;;;;;4753899;29;20562;-86
2021/12/25 06:43:41;;;;;;;1.80;0.50;;;-4.10;99.90;;;;;;4771978;29;20111;-85
2021/12/25 06:46:08;;;;;;;0.65;0.40;;;-4.10;99.90;;;;;;4780915;29;20089;-85
2021/12/25 06:48:33;;;;;;;2.65;0.60;;;-4.10;99.90;;;;;;4765269;30;20051;-86
2021/12/25 06:50:59;;;;;;;1.85;0.80;;;-4.10;99.90;;;;;;4765702;30;20039;-87
2021/12/25 06:53:25;;;;;;;4.13;0.60;;;-4.20;99.90;;;;;;4765384;29;20045;-85
2021/12/25 06:55:51;;;;;;;1.48;0.70;;;-4.10;99.90;;;;;;4747410;30;20077;-86
2021/12/25 06:58:16;;;;;;;1.77;0.50;;;-4.20;99.90;;;;;;4767018;29;20043;-85
2021/12/25 07:00:42;;;;;;;3.20;0.52;;;-4.20;99.90;;;;;;4738736;30;20047;-86
2021/12/25 07:03:08;;;;;;;2.05;0.80;;;-4.20;99.90;;;;;;4752488;29;20152;-87
2021/12/25 07:05:34;;;;;;;2.10;0.60;;;-4.20;99.90;;;;;;4748744;30;20035;-86
2021/12/25 07:08:00;;;;;;;5.68;0.43;;;-4.30;99.90;;;;;;4752725;30;20499;-86
2021/12/25 07:10:26;;;;;;;1.25;0.80;;;-4.20;99.90;;;;;;4765691;30;20530;-86
2021/12/25 07:12:53;;;;;;;1.60;0.63;;;-4.30;99.90;;;;;;4757378;29;20070;-86
2021/12/25 07:15:20;;;;;;;1.08;0.40;;;-4.30;99.90;;;;;;4738451;30;20035;-86
2021/12/25 07:17:45;;;;;;;3.35;0.77;;;-4.30;99.90;;;;;;4779129;29;20127;-84
2021/12/25 07:20:12;;;;;;;3.92;0.70;;;-4.30;99.90;;;;;;4750265;29;20135;-86
2021/12/25 07:22:38;;;;;;;2.20;0.50;;;-4.40;99.90;;;;;;4781486;29;20062;-87
2021/12/25 07:25:06;;;;;;;1.50;0.60;;;-4.40;99.90;;;;;;4765520;29;20047;-88
2021/12/25 07:27:32;;;;;;;1.42;0.60;;;-4.40;99.90;;;;;;4767762;29;20108;-86
2021/12/25 07:29:58;;;;;;;3.10;0.50;;;-4.40;99.90;;;;;;4764737;30;20043;-84
2021/12/25 07:32:24;;;;;;;3.55;0.60;;;-4.30;99.90;;;;;;4765122;29;20046;-85
2021/12/25 07:34:51;;;;;;;2.53;1.15;;;-4.30;99.90;;;;;;4776769;29;20047;-87
2021/12/25 07:37:17;;;;;;;1.73;0.70;;;-4.30;99.90;;;;;;4751528;29;20526;-86
2021/12/25 07:39:43;;;;;;;2.25;0.60;;;-4.40;99.90;;;;;;4766003;29;20072;-85
2021/12/25 07:42:10;;;;;;;1.60;0.47;;;-4.30;99.90;;;;;;4780665;29;20039;-86
2021/12/25 07:44:36;;;;;;;0.90;0.50;;;-4.30;99.90;;;;;;4750228;30;20106;-85
2021/12/25 07:47:08;;;;;;;1.38;0.65;;;-4.30;99.90;;;;;;4752129;30;20134;-86
2021/12/25 07:49:34;;;;;;;3.83;0.60;;;-4.30;99.90;;;;;;4754408;30;20047;-85
2021/12/25 07:52:00;;;;;;;1.23;0.47;;;-4.40;99.90;;;;;;4748320;30;20074;-84
2021/12/25 07:54:25;;;;;;;4.60;1.60;;;-4.30;99.90;;;;;;4765772;29;20051;-87
2021/12/25 07:56:51;;;;;;;4.40;0.50;;;-4.30;99.90;;;;;;4765822;30;20108;-85
2021/12/25 07:59:17;;;;;;;1.88;0.80;;;-4.40;99.90;;;;;;4754296;29;20363;-84
2021/12/25 08:01:43;;;;;;;3.13;0.50;;;-4.40;99.90;;;;;;4752910;30;20547;-87
2021/12/25 08:04:10;;;;;;;0.98;0.60;;;-4.40;99.90;;;;;;4751154;29;20039;-85
2021/12/25 08:06:36;;;;;;;3.45;0.55;;;-4.40;99.90;;;;;;4765303;29;20296;-87
2021/12/25 08:09:04;;;;;;;2.17;0.60;;;-4.40;99.90;;;;;;4756248;30;20323;-85
2021/12/25 08:11:30;;;;;;;2.00;0.60;;;-4.40;99.90;;;;;;4753750;30;20550;-85
2021/12/25 08:13:56;;;;;;;1.80;0.60;;;-4.40;99.90;;;;;;4751623;30;20070;-84
2021/12/25 08:16:22;;;;;;;4.43;0.68;;;-4.40;99.90;;;;;;4753437;30;20074;-85
2021/12/25 08:18:48;;;;;;;4.43;0.80;;;-4.40;99.90;;;;;;4769302;30;20039;-88
2021/12/25 08:21:14;;;;;;;0.50;0.50;;;-4.40;99.90;;;;;;4737536;29;20315;-85
2021/12/25 08:23:41;;;;;;;2.03;0.93;;;-4.40;99.90;;;;;;4752373;29;20076;-86
2021/12/25 08:26:08;;;;;;;4.80;0.80;;;-4.40;99.90;;;;;;4803486;29;20058;-85
2021/12/25 08:28:34;;;;;;;1.52;0.60;;;-4.40;99.90;;;;;;4767446;30;20057;-85
2021/12/25 08:31:01;;;;;;;4.80;0.90;;;-4.40;99.90;;;;;;4763738;30;20050;-84
2021/12/25 08:33:26;;;;;;;4.88;0.75;;;-4.50;99.90;;;;;;4769670;29;20047;-86
2021/12/25 08:35:53;;;;;;;2.50;1.05;;;-4.50;99.90;;;;;;4751568;30;20092;-85
2021/12/25 08:38:18;;;;;;;4.32;0.98;;;-4.30;99.90;;;;;;4752200;29;20522;-85
2021/12/25 08:40:44;;;;;;;5.82;1.23;;;-4.40;99.90;;;;;;4768905;30;20047;-84
2021/12/25 08:43:11;;;;;;;4.82;1.00;;;-4.40;99.90;;;;;;4752078;29;20050;-85
2021/12/25 08:48:19;;;;;;;5.60;1.17;;;-4.30;99.90;;;;;;4753107;29;20035;-85
2021/12/25 08:50:54;;;;;;;2.58;0.82;;;-4.30;99.90;;;;;;4760658;29;20051;-85
2021/12/25 08:53:23;;;;;;;5.72;0.95;;;-4.20;99.90;;;;;;4769957;29;20205;-86
2021/12/25 08:55:50;;;;;;;1.55;0.60;;;-4.20;99.90;;;;;;4769583;30;20054;-85
2021/12/25 08:58:17;;;;;;;2.50;1.02;;;-4.20;99.90;;;;;;4766285;29;20407;-85
2021/12/25 09:00:43;;;;;;;2.28;0.80;;;-4.20;99.90;;;;;;4759861;29;20047;-87
2021/12/25 09:03:09;;;;;;;1.92;0.80;;;-4.10;99.90;;;;;;4757130;29;20035;-84
2021/12/25 09:05:36;;;;;;;2.17;0.60;;;-4.10;99.90;;;;;;4764126;30;20044;-86
2021/12/25 09:08:03;;;;;;;3.17;0.77;;;-4.00;99.90;;;;;;4750210;30;20595;-85
2021/12/25 09:10:29;;;;;;;6.40;0.90;;;-3.90;99.90;;;;;;4764959;30;20044;-86
2021/12/25 09:12:56;;;;;;;1.80;0.68;;;-3.90;99.90;;;;;;4750490;30;20231;-86
2021/12/25 09:15:23;;;;;;;2.97;0.73;;;-3.90;99.90;;;;;;4743657;29;20392;-84
2021/12/25 09:17:49;;;;;;;4.15;0.80;;;-3.80;99.90;;;;;;4750068;29;20043;-85
2021/12/25 09:20:20;;;;;;;4.07;0.90;;;-3.70;99.90;;;;;;4780405;29;20054;-84
2021/12/25 09:22:46;;;;;;;4.97;0.70;;;-3.70;99.90;;;;;;4781034;29;20055;-87
2021/12/25 09:25:13;;;;;;;4.88;0.75;;;-3.60;99.90;;;;;;4749283;29;20039;-86
2021/12/25 09:27:39;;;;;;;3.00;0.63;;;-3.50;99.90;;;;;;4780756;29;20092;-85
2021/12/25 09:30:06;;;;;;;2.88;0.55;;;-3.50;99.90;;;;;;4741098;29;20050;-86
2021/12/25 09:32:31;;;;;;;5.32;1.00;;;-3.50;99.90;;;;;;4767537;30;20047;-84
2021/12/25 09:35:00;;;;;;;3.47;1.08;;;-3.40;99.90;;;;;;4751597;30;20043;-87
2021/12/25 09:37:27;;;;;;;1.88;0.82;;;-3.40;99.90;;;;;;4763914;29;20227;-86
2021/12/25 09:39:53;;;;;;;2.80;0.80;;;-3.30;99.90;;;;;;4796861;29;20058;-87
2021/12/25 09:42:22;;;;;;;2.22;1.05;;;-3.30;99.90;;;;;;4768466;29;20129;-87
2021/12/25 09:44:47;;;;;;;3.70;0.90;;;-3.20;99.90;;;;;;4751665;30;20036;-85
2021/12/25 09:47:13;;;;;;;2.15;0.70;;;-3.20;99.90;;;;;;4766843;29;20050;-86
2021/12/25 09:49:39;;;;;;;1.92;0.70;;;-3.10;99.90;;;;;;4766905;30;20680;-85
2021/12/25 09:52:05;;;;;;;2.80;0.88;;;-3.10;99.90;;;;;;4767955;29;20776;-84
2021/12/25 09:54:31;;;;;;;2.15;0.70;;;-3.10;99.90;;;;;;4768989;29;20047;-85
2021/12/25 09:56:58;;;;;;;4.82;0.90;;;-3.00;99.90;;;;;;4766220;30;20101;-85
2021/12/25 09:59:24;;;;;;;4.85;1.08;;;-3.00;99.90;;;;;;4757580;29;20102;-85
2021/12/25 10:01:54;;;;;;;4.88;0.73;;;-2.90;99.90;;;;;;4753127;30;20407;-86
2021/12/25 10:04:33;;;;;;;0.93;0.52;;;-3.00;99.90;;;;;;4767446;30;20504;-85
2021/12/25 10:07:16;;;;;;;3.13;0.90;;;-2.90;99.90;;;;;;4777941;29;20039;-85
2021/12/25 10:09:52;;;;;;;2.13;0.68;;;-2.80;99.90;;;;;;4768533;30;20103;-85
2021/12/25 10:12:18;;;;;;;3.05;0.80;;;-2.80;99.90;;;;;;4777230;29;20130;-85
2021/12/25 10:14:52;;;;;;;3.47;0.80;;;-2.70;99.90;;;;;;4757086;30;20126;-86
2021/12/25 10:17:20;;;;;;;4.80;1.10;;;-2.70;99.90;;;;;;4764018;29;20139;-86
2021/12/25 10:20:03;;;;;;;2.70;0.80;;;-2.60;99.90;;;;;;4782442;29;20432;-86
2021/12/25 10:22:30;;;;;;;2.80;0.60;;;-2.60;99.90;;;;;;4767404;30;20069;-85
2021/12/25 10:25:15;;;;;;;4.97;1.88;;;-2.60;99.90;;;;;;4799787;29;20104;-87
2021/12/25 10:27:54;;;;;;;4.05;0.60;;;-2.50;99.90;;;;;;4773154;30;20063;-86
2021/12/25 10:30:20;;;;;;;3.15;0.82;;;-2.40;99.90;;;;;;4769361;29;20534;-85
2021/12/25 10:32:47;;;;;;;2.88;0.60;;;-2.30;99.90;;;;;;4752663;30;20072;-88
2021/12/25 10:35:16;;;;;;;0.77;0.47;;;-2.10;99.90;;;;;;4767627;30;20599;-85
2021/12/25 10:37:43;;;;;;;3.78;1.48;;;-2.00;99.90;;;;;;4768072;30;20061;-86
2021/12/25 10:40:33;;;;;;;2.28;0.73;;;-1.90;99.90;;;;;;4766228;30;20511;-88
2021/12/25 10:43:03;;;;;;;4.55;0.80;;;-1.90;99.90;;;;;;4775841;29;20051;-86
2021/12/25 10:45:31;;;;;;;2.03;0.68;;;-1.90;99.90;;;;;;4767752;30;20047;-84
2021/12/25 10:48:03;;;;;;;4.93;0.75;;;-1.90;99.90;;;;;;4753340;30;20057;-86
2021/12/25 10:50:40;;;;;;;3.22;0.93;;;-1.90;99.90;;;;;;4761429;29;20086;-85
2021/12/25 10:53:29;;;;;;;2.05;0.80;;;-1.90;99.90;;;;;;4780645;29;20126;-88
2021/12/25 10:56:07;;;;;;;1.67;0.68;;;-1.90;99.90;;;;;;4781733;29;20043;-84
2021/12/25 10:58:33;;;;;;;5.35;0.88;;;-1.80;99.90;;;;;;4780411;29;20128;-83
2021/12/25 11:00:59;;;;;;;3.05;0.70;;;-1.80;99.90;;;;;;4767665;30;20057;-84
2021/12/25 11:03:34;;;;;;;2.67;0.60;;;-1.90;99.90;;;;;;4767513;30;20137;-84
2021/12/25 11:06:03;;;;;;;5.68;0.82;;;-1.90;99.90;;;;;;4782696;29;20528;-86
2021/12/25 11:08:30;;;;;;;5.97;0.77;;;-1.90;99.90;;;;;;4781391;24;20047;-84
2021/12/25 11:11:10;;;;;;;2.78;0.60;;;-1.90;99.90;;;;;;4757491;30;20486;-84
2021/12/25 11:13:39;;;;;;;2.75;0.80;;;-1.80;99.90;;;;;;4780618;29;20126;-85
2021/12/25 11:16:23;;;;;;;4.45;0.75;;;-1.80;99.90;;;;;;4758566;30;20416;-84
2021/12/25 11:19:15;;;;;;;4.43;0.70;;;-1.70;99.90;;;;;;4761751;30;20495;-87
2021/12/25 11:21:44;;;;;;;5.10;0.68;;;-1.80;99.90;;;;;;4778676;29;20061;-85
2021/12/25 11:24:14;;;;;;;3.85;1.00;;;-1.70;99.90;;;;;;4764150;29;20055;-85
2021/12/25 11:26:42;;;;;;;3.90;0.70;;;-1.70;99.90;;;;;;4765807;30;20047;-84
2021/12/25 11:29:11;;;;;;;3.35;1.00;;;-1.70;99.90;;;;;;4761618;29;20565;-85
2021/12/25 11:31:37;;;;;;;2.25;0.77;;;-1.70;99.90;;;;;;4771205;29;20062;-85
2021/12/25 11:34:04;;;;;;;3.15;0.82;;;-1.70;99.90;;;;;;4760015;30;20043;-84
2021/12/25 11:36:30;;;;;;;1.48;0.60;;;-1.50;99.90;;;;;;4758296;30;20043;-85
2021/12/25 11:38:56;;;;;;;2.00;0.80;;;-1.60;99.90;;;;;;4744949;30;20048;-86
2021/12/25 11:41:28;;;;;;;6.95;0.98;;;-1.50;99.90;;;;;;4766147;29;20115;-85
2021/12/25 11:43:55;;;;;;;16.02;1.27;;;-1.50;99.90;;;;;;4776856;29;20515;-85
2021/12/25 11:46:35;;;;;;;2.95;0.70;;;-1.50;99.90;;;;;;4753198;29;20048;-85
2021/12/25 11:49:05;;;;;;;4.38;0.88;;;-1.40;99.90;;;;;;4763951;30;20079;-86
2021/12/25 11:51:31;;;;;;;4.82;1.00;;;-1.30;99.90;;;;;;4781118;29;20050;-85
2021/12/25 11:56:44;;;;;;;4.03;1.00;;;-1.20;99.90;;;;;;4778632;29;20415;-87
2021/12/25 11:59:14;;;;;;;1.70;0.85;;;-1.10;99.90;;;;;;4774962;29;20075;-85
2021/12/25 12:01:48;;;;;;;1.15;0.68;;;-1.10;99.90;;;;;;4771500;29;20052;-84
2021/12/25 12:04:25;;;;;;;2.47;0.80;;;-1.10;99.90;;;;;;4764066;29;20044;-85
2021/12/25 12:06:56;;;;;;;2.58;0.60;;;-1.10;99.90;;;;;;4763087;30;20043;-85
2021/12/25 12:09:27;;;;;;;6.38;0.80;;;-1.00;99.90;;;;;;4782508;29;20036;-85
2021/12/25 12:12:32;;;;;;;1.85;0.80;;;-1.10;99.90;;;;;;4767047;29;20330;-84
2021/12/25 12:15:25;;;;;;;2.70;0.63;;;-1.00;99.90;;;;;;4732179;30;20610;-85
2021/12/25 12:17:50;;;;;;;5.07;0.80;;;-0.80;99.90;;;;;;4731849;30;20058;-86
2021/12/25 12:20:39;;;;;;;5.95;0.80;;;-0.70;99.90;;;;;;4740581;29;20323;-84
2021/12/25 12:23:47;;;;;;;4.05;0.90;;;-0.50;99.90;;;;;;4764829;29;20035;-85
2021/12/25 12:26:14;;;;;;;5.32;0.93;;;-0.30;99.90;;;;;;4766592;29;20043;-86
2021/12/25 12:28:54;;;;;;;6.82;1.00;;;-0.10;99.90;;;;;;4748717;30;20043;-84
2021/12/25 12:31:38;;;;;;;2.10;0.70;;;0.30;99.90;;;;;;4783021;29;20079;-84
2021/12/25 12:34:26;;;;;;;3.08;1.00;;;0.50;99.90;;;;;;4765154;29;20039;-82
2021/12/25 12:36:52;;;;;;;6.32;0.90;;;0.30;99.90;;;;;;4775078;29;20047;-83
2021/12/25 12:39:20;;;;;;;5.10;1.05;;;0.20;99.90;;;;;;4763671;29;20130;-85
2021/12/25 12:41:52;;;;;;;3.20;0.95;;;0.40;99.90;;;;;;4761864;30;20044;-86
2021/12/25 12:44:30;;;;;;;3.78;0.90;;;1.00;99.90;;;;;;4764086;29;20043;-84
2021/12/25 12:47:00;;;;;;;2.50;0.82;;;1.20;99.90;;;;;;4740293;30;20492;-85
2021/12/25 12:49:45;;;;;;;3.47;0.80;;;1.10;99.90;;;;;;4779682;29;20186;-84
2021/12/25 12:52:39;;;;;;;7.80;0.93;;;1.30;99.90;;;;;;4761992;29;20135;-84
2021/12/25 12:55:08;;;;;;;7.85;1.27;;;1.50;99.90;;;;;;4776216;29;20421;-85
2021/12/25 12:57:45;;;;;;;7.53;1.10;;;1.70;99.90;;;;;;4761798;30;20043;-84
2021/12/25 13:00:26;;;;;;;5.32;0.90;;;1.70;99.90;;;;;;4785266;29;20406;-81
2021/12/25 13:02:57;;;;;;;2.63;0.73;;;2.10;99.90;;;;;;4764723;30;20066;-82
2021/12/25 13:05:36;;;;;;;6.18;1.20;;;2.30;99.50;;;;;;4763333;29;20043;-84
2021/12/25 13:08:30;;;;;;;3.38;0.90;;;2.40;95.10;;;;;;4756984;30;20047;-85
2021/12/25 13:11:09;;;;;;;2.65;1.00;;;2.20;94.80;;;;;;4753227;30;20163;-84
2021/12/25 13:13:40;;;;;;;2.90;0.70;;;1.70;94.30;;;;;;4738171;29;20391;-86
2021/12/25 13:16:08;;;;;;;3.42;1.15;;;1.20;95.20;;;;;;4764343;29;20284;-84
2021/12/25 13:18:37;;;;;;;4.43;0.68;;;0.80;96.20;;;;;;4771592;30;20354;-87
2021/12/25 13:21:08;;;;;;;2.28;0.70;;;0.50;96.80;;;;;;4786279;29;20102;-84
2021/12/25 13:23:49;;;;;;;4.65;1.10;;;0.20;94.50;;;;;;4771577;29;20056;-84
2021/12/25 13:26:15;;;;;;;4.65;0.90;;;-0.10;96.20;;;;;;4769292;29;20128;-83
2021/12/25 13:28:43;;;;;;;3.08;0.90;;;-0.20;98.10;;;;;;4749677;30;20116;-84
2021/12/25 13:31:16;;;;;;;2.90;0.98;;;-0.30;97.30;;;;;;4760731;29;20043;-85
2021/12/25 13:34:11;;;;;;;2.30;0.75;;;-0.40;98.20;;;;;;4777749;29;20102;-85
2021/12/25 13:36:41;;;;;;;2.92;0.70;;;-0.60;97.00;;;;;;4776633;29;20468;-83
2021/12/25 13:39:11;;;;;;;1.80;0.82;;;-0.70;97.80;;;;;;4769503;29;20546;-83
2021/12/25 13:41:39;;;;;;;3.33;1.00;;;-0.70;98.50;;;;;;4765923;29;20086;-84
2021/12/25 13:44:20;;;;;;;2.13;0.85;;;-0.70;98.50;;;;;;4761436;29;20507;-84
2021/12/25 13:46:51;;;;;;;3.97;1.00;;;-0.60;99.90;;;;;;4759477;30;20416;-83
2021/12/25 13:49:37;;;;;;;2.70;0.83;;;0.00;99.90;;;;;;4777391;29;20048;-84
2021/12/25 13:52:33;;;;;;;2.97;1.00;;;0.80;98.20;;;;;;4763344;30;20492;-84
2021/12/25 13:54:58;;;;;;;3.75;1.05;;;1.40;93.20;;;;;;4777982;29;20040;-85
2021/12/25 13:57:27;;;;;;;1.88;1.10;;;1.60;90.90;;;;;;4762852;29;20526;-84
2021/12/25 14:00:03;;;;;;;3.25;1.17;;;1.50;90.60;;;;;;4744581;30;20268;-84
2021/12/25 14:02:29;;;;;;;5.63;1.02;;;1.30;90.00;;;;;;4766905;29;20515;-84
2021/12/25 14:04:56;;;;;;;2.10;1.17;;;1.00;89.90;;;;;;4748641;30;20089;-85
2021/12/25 14:07:26;;;;;;;1.55;0.90;;;0.60;90.00;;;;;;4745172;29;20047;-82
2021/12/25 14:10:15;;;;;;;5.50;1.13;;;0.30;91.60;;;;;;4765020;30;20447;-86
2021/12/25 14:12:49;;;;;;;3.60;1.05;;;0.00;91.00;;;;;;4772912;29;20527;-84
2021/12/25 14:15:18;;;;;;;7.22;1.05;;;-0.30;92.50;;;;;;4784823;29;20441;-84